• Join FlightAware (Why Join?)
  • Login
  • US Flag 
10:30PM EST


 

Airport Tracker/Info


-or-


 

Live Flight TrackerFlight Track Log ✈ SWA3497 ✈ 15-Apr-2013 ✈ KIAD - KMDW

Flight Track Log - Related Links

Times and Time Zones

All times are in EDT time to prevent confusion due to time zone crossing. See the SWA3497 flight status page for this flight to view local times or setup timezone preferences in your user account.

Time Position Orientation Groundspeed Altitude Reporting Facility
EDT Latitude Longitude Course Direction KTS MPH feet Rate Location/Type
09:50AM 38.9500 -77.5000 252° West 166 191 1,600  Level Potomac TRACON
09:51AM 38.9333 -77.5667 252° West 211 243 3,500 2,160 Climbing Potomac TRACON
09:52AM 38.9225 -77.6756 263° West 242 278 6,400 3,060 Climbing Washington Center
09:53AM 38.9106 -77.7631 260° West 265 305 10,400 2,820 Climbing Washington Center
09:54AM 38.9189 -77.8700 276° West 286 329 12,100 2,700 Climbing Washington Center
09:55AM 38.9353 -77.9961 280° West 328 377 15,800 2,820 Climbing Washington Center
09:56AM 38.9472 -78.1272 277° West 345 397 17,800 2,700 Climbing Washington Center
09:57AM 38.9611 -78.2558 278° West 371 427 21,300 2,940 Climbing Washington Center
09:58AM 38.9642 -78.3922 272° West 377 434 23,700 2,400 Climbing Washington Center
09:59AM 38.9669 -78.5339 271° West 393 452 26,100 2,280 Climbing Washington Center
10:00AM 38.9717 -78.6781 272° West 405 466 28,300 2,100 Climbing Washington Center
10:01AM 38.9764 -78.8253 272° West 419 482 30,300 2,280 Climbing Washington Center
10:02AM 38.9808 -78.9669 272° West 413 475 32,900 2,340 Climbing Washington Center
10:03AM 38.9831 -79.1058 271° West 402 463 35,000 1,620 Climbing Washington Center
10:04AM 38.9872 -79.2450 272° West 397 457 36,200 1,320 Climbing Washington Center
10:05AM 38.9892 -79.3839 271° West 397 457 37,700 900 Climbing Washington Center
10:06AM 38.9911 -79.5203 271° West 397 457 38,000 120 Climbing Washington Center
10:07AM 39.0003 -79.6783 274° West 407 468 38,000  Level Washington Center
10:08AM 39.0039 -79.8175 272° West 407 468 38,000  Level Washington Center
10:09AM 39.0031 -79.9564 270° West 402 463 38,000  Level Washington Center
10:11AM 39.0075 -80.2350 271° West 384 442 38,000  Level Indianapolis Center
10:12AM 39.0069 -80.3850 270° West 387 445 38,000  Level Indianapolis Center
10:13AM 39.0436 -80.4956 293° West 374 430 38,000  Level Indianapolis Center
10:14AM 39.0933 -80.6094 299° West 366 421 38,000 420 Level Indianapolis Center
10:15AM 39.1422 -80.7236 299° West 364 419 38,900 720 Climbing Indianapolis Center
10:16AM 39.2039 -80.8622 300° West 373 429 39,600 480 Climbing Indianapolis Center
10:17AM 39.2567 -80.9814 300° West 382 440 40,000 180 Climbing Indianapolis Center
10:19AM 39.3086 -81.0989 300° West 380 437 40,000  Level Indianapolis Center
10:20AM 39.3608 -81.2183 300° West 383 441 40,000  Level Indianapolis Center
10:21AM 39.4119 -81.3367 299° West 381 438 40,000  Level Indianapolis Center
10:22AM 39.4736 -81.4819 299° West 384 442 40,000  Level Indianapolis Center
10:23AM 39.5256 -81.6019 299° West 384 442 40,000  Level Indianapolis Center
10:24AM 39.5778 -81.7225 299° West 386 444 40,000  Level Indianapolis Center
10:25AM 39.6289 -81.8433 299° West 385 443 40,000  Level Indianapolis Center
10:26AM 39.6808 -81.9658 299° West 387 445 40,000  Level Indianapolis Center
10:27AM 39.7333 -82.0917 299° West 386 444 40,000  Level Indianapolis Center
10:28AM 39.7867 -82.2139 300° West 387 445 40,000  Level Indianapolis Center
10:29AM 39.8464 -82.3581 298° West 385 443 40,000  Level Indianapolis Center
10:30AM 39.8978 -82.4806 299° West 384 442 40,000  Level Indianapolis Center
10:31AM 39.9497 -82.6031 299° West 384 442 40,000  Level Indianapolis Center
10:32AM 40.0003 -82.7250 298° West 380 437 40,000  Level Indianapolis Center
10:33AM 40.0503 -82.8458 298° West 377 434 40,000  Level Indianapolis Center
10:34AM 40.0994 -82.9678 298° West 378 435 40,000  Level Indianapolis Center
10:35AM 40.1503 -83.0897 299° West 382 440 40,000  Level Indianapolis Center
10:36AM 40.2086 -83.2328 298° West 381 438 40,000 -240 Level Indianapolis Center
10:37AM 40.2581 -83.3553 298° West 380 437 39,600 -720 Descending Indianapolis Center
10:38AM 40.3069 -83.4758 298° West 374 430 38,600 -1,380 Descending Indianapolis Center
10:39AM 40.3547 -83.5942 298° West 366 421 36,800 -1,800 Descending Indianapolis Center
10:40AM 40.4033 -83.7150 298° West 372 428 34,900 -1,740 Descending Indianapolis Center
10:41AM 40.4531 -83.8394 298° West 382 440 33,300 -1,260 Descending Indianapolis Center
10:42AM 40.5008 -83.9583 298° West 367 422 32,300 -1,080 Descending Indianapolis Center
10:43AM 40.5536 -84.0914 298° West 350 403 31,100 -1,080 Descending Indianapolis Center
10:44AM 40.5994 -84.2067 298° West 353 406 30,100 -540 Descending Indianapolis Center
10:45AM 40.6450 -84.3242 297° West 358 412 30,000 -60 Descending Indianapolis Center
10:46AM 40.6869 -84.4258 299° West 358 412 30,000  Level Chicago Center
10:47AM 40.7317 -84.5447 296° West 362 417 30,000  Level Chicago Center
10:48AM 40.7869 -84.6861 297° West 361 415 30,000  Level Chicago Center
10:49AM 40.8311 -84.8039 296° West 359 413 30,000  Level Chicago Center
10:50AM 40.8986 -84.9047 312° West 372 428 30,000  Level Chicago Center
10:51AM 40.9772 -84.9939 319° Northwest 374 430 30,000  Level Chicago Center
10:52AM 41.0536 -85.0850 318° Northwest 371 427 30,000  Level Chicago Center
10:55AM 41.2117 -85.2644 320° Northwest 373 429 30,000 -540 Level Chicago Center
10:56AM 41.2908 -85.3542 320° Northwest 374 430 28,500 -2,040 Descending Chicago Center
10:57AM 41.3808 -85.4586 319° Northwest 363 418 25,900 -1,860 Descending Chicago Center
10:58AM 41.4589 -85.5494 319° Northwest 367 422 24,700 -1,680 Descending Chicago Center
10:59AM 41.5161 -85.6558 306° West 351 404 22,500 -2,100 Descending Chicago Center
11:00AM 41.5194 -85.7783 272° West 329 379 20,400 -1,920 Descending Chicago Center
11:01AM 41.5217 -85.8989 271° West 324 373 18,500 -1,800 Descending Chicago Center
11:02AM 41.5236 -86.0156 271° West 315 362 16,700 -1,740 Descending Chicago Center
11:03AM 41.5242 -86.1303 270° West 310 357 15,000 -1,740 Descending Chicago Center
11:04AM 41.5236 -86.2439 270° West 306 352 13,200 -1,920 Descending Chicago Center
11:05AM 41.5225 -86.3794 269° West 305 351 11,100 -1,080 Descending Chicago Center
11:06AM 41.5228 -86.4914 270° West 302 348 11,000 -180 Descending Chicago Center
11:07AM 41.5206 -86.6000 268° West 293 337 10,800 -420 Descending Chicago Center
11:08AM 41.5208 -86.7114 270° West 276 318 10,200 -780 Descending Chicago Center
11:09AM 41.5192 -86.8081 269° West 265 305 9,300 -960 Descending Chicago Center
11:10AM 41.5197 -86.9058 270° West 264 304 8,300 -1,020 Descending Chicago Center
11:11AM 41.5172 -87.0006 268° West 264 304 7,300 -1,020 Descending Chicago Center
11:12AM 41.5175 -87.0931 270° West 254 292 6,300 -960 Descending Chicago Center
11:13AM 41.5167 -87.1500 269° West 253 291 5,900 -1,020 Descending Chicago TRACON
11:14AM 41.5500 -87.2500 294° West 263 303 4,800 -960 Descending Chicago TRACON
11:15AM 41.5833 -87.3333 298° West 263 303 4,000 -540 Descending Chicago TRACON
11:15AM 41.5928 -87.3775 286° West 264 304 4,000  Level Chicago Center
11:16AM 41.6222 -87.4633 295° West 260 299 4,000  Level Chicago Center
11:17AM 41.6500 -87.5431 295° West 252 290 4,000 -240 Level Chicago Center
11:18AM 41.6769 -87.6022 301° West 216 249 3,600 -720 Descending Chicago Center
11:19AM 41.7000 -87.6333 315° West 187 215 3,000 -1,140 Descending Chicago TRACON
11:20AM 41.7333 -87.6833 312° West 189 217 2,100 -600 Descending Chicago TRACON
11:21AM 41.7833 -87.6833 360° North 187 215 1,900 -420 Descending Chicago TRACON
11:21AM 41.8167 -87.7000 340° North 170 196 1,400 -600 Descending Chicago TRACON
11:24AM 41.7833 -87.7500 334° Northwest  Level FlightAware Approximate